sensor_id;sensor_type;location;lat;lon;timestamp;temperature;humidity
3051;DHT22;1535;51.098;6.414;2023-07-13T00:00:40;15.00;99.90
3051;DHT22;1535;51.098;6.414;2023-07-13T00:03:07;15.00;99.90
3051;DHT22;1535;51.098;6.414;2023-07-13T00:05:34;15.10;99.90
3051;DHT22;1535;51.098;6.414;2023-07-13T00:08:01;15.10;99.90
3051;DHT22;1535;51.098;6.414;2023-07-13T00:10:29;15.00;99.90
3051;DHT22;1535;51.098;6.414;2023-07-13T00:12:56;15.00;99.90
3051;DHT22;1535;51.098;6.414;2023-07-13T00:15:25;15.00;99.90
3051;DHT22;1535;51.098;6.414;2023-07-13T00:17:54;14.90;99.90
3051;DHT22;1535;51.098;6.414;2023-07-13T00:20:23;14.90;99.90
3051;DHT22;1535;51.098;6.414;2023-07-13T00:22:52;14.90;99.90
3051;DHT22;1535;51.098;6.414;2023-07-13T00:25:20;14.80;99.90
3051;DHT22;1535;51.098;6.414;2023-07-13T00:27:47;14.80;99.90
3051;DHT22;1535;51.098;6.414;2023-07-13T00:30:15;14.80;99.90
3051;DHT22;1535;51.098;6.414;2023-07-13T00:32:42;14.80;99.90
3051;DHT22;1535;51.098;6.414;2023-07-13T00:35:12;14.70;99.90
3051;DHT22;1535;51.098;6.414;2023-07-13T00:37:40;14.80;99.90
3051;DHT22;1535;51.098;6.414;2023-07-13T00:40:09;14.80;99.90
3051;DHT22;1535;51.098;6.414;2023-07-13T00:42:36;14.80;99.90
3051;DHT22;1535;51.098;6.414;2023-07-13T00:45:06;14.80;99.90
3051;DHT22;1535;51.098;6.414;2023-07-13T00:47:33;14.80;99.90
3051;DHT22;1535;51.098;6.414;2023-07-13T00:50:01;14.80;99.90
3051;DHT22;1535;51.098;6.414;2023-07-13T00:52:31;14.80;99.90
3051;DHT22;1535;51.098;6.414;2023-07-13T00:54:59;14.80;99.90
3051;DHT22;1535;51.098;6.414;2023-07-13T00:57:26;14.70;99.90
3051;DHT22;1535;51.098;6.414;2023-07-13T00:59:55;14.80;99.90
3051;DHT22;1535;51.098;6.414;2023-07-13T01:02:25;14.70;99.90
3051;DHT22;1535;51.098;6.414;2023-07-13T01:04:53;14.70;99.90
3051;DHT22;1535;51.098;6.414;2023-07-13T01:07:19;14.80;99.90
3051;DHT22;1535;51.098;6.414;2023-07-13T01:09:48;14.70;99.90
3051;DHT22;1535;51.098;6.414;2023-07-13T01:12:15;14.60;99.90
3051;DHT22;1535;51.098;6.414;2023-07-13T01:14:42;14.60;99.90
3051;DHT22;1535;51.098;6.414;2023-07-13T01:17:11;14.60;99.90
3051;DHT22;1535;51.098;6.414;2023-07-13T01:19:40;14.60;99.90
3051;DHT22;1535;51.098;6.414;2023-07-13T01:22:11;14.60;99.90
3051;DHT22;1535;51.098;6.414;2023-07-13T01:24:40;14.60;99.90
3051;DHT22;1535;51.098;6.414;2023-07-13T01:27:09;14.60;99.90
3051;DHT22;1535;51.098;6.414;2023-07-13T01:29:38;14.60;99.90
3051;DHT22;1535;51.098;6.414;2023-07-13T01:32:08;14.60;99.90
3051;DHT22;1535;51.098;6.414;2023-07-13T01:34:35;14.60;99.90
3051;DHT22;1535;51.098;6.414;2023-07-13T01:37:04;14.60;99.90
3051;DHT22;1535;51.098;6.414;2023-07-13T01:39:32;14.50;99.90
3051;DHT22;1535;51.098;6.414;2023-07-13T01:41:59;14.60;99.90
3051;DHT22;1535;51.098;6.414;2023-07-13T01:44:26;14.50;99.90
3051;DHT22;1535;51.098;6.414;2023-07-13T01:46:54;14.40;99.90
3051;DHT22;1535;51.098;6.414;2023-07-13T01:49:21;14.40;99.90
3051;DHT22;1535;51.098;6.414;2023-07-13T01:51:48;14.40;99.90
3051;DHT22;1535;51.098;6.414;2023-07-13T01:54:15;14.40;99.90
3051;DHT22;1535;51.098;6.414;2023-07-13T01:56:43;14.40;99.90
3051;DHT22;1535;51.098;6.414;2023-07-13T01:59:10;14.40;99.90
3051;DHT22;1535;51.098;6.414;2023-07-13T02:01:37;14.50;99.90
3051;DHT22;1535;51.098;6.414;2023-07-13T02:04:04;14.40;99.90
3051;DHT22;1535;51.098;6.414;2023-07-13T02:06:31;14.40;99.90
3051;DHT22;1535;51.098;6.414;2023-07-13T02:08:58;14.40;99.90
3051;DHT22;1535;51.098;6.414;2023-07-13T02:11:26;14.40;99.90
3051;DHT22;1535;51.098;6.414;2023-07-13T02:14:01;14.40;99.90
3051;DHT22;1535;51.098;6.414;2023-07-13T02:16:28;14.40;99.90
3051;DHT22;1535;51.098;6.414;2023-07-13T02:18:54;14.30;99.90
3051;DHT22;1535;51.098;6.414;2023-07-13T02:21:23;14.30;99.90
3051;DHT22;1535;51.098;6.414;2023-07-13T02:23:50;14.40;99.90
3051;DHT22;1535;51.098;6.414;2023-07-13T02:26:17;14.40;99.90
3051;DHT22;1535;51.098;6.414;2023-07-13T02:28:45;14.40;99.90
3051;DHT22;1535;51.098;6.414;2023-07-13T02:31:14;14.30;99.90
3051;DHT22;1535;51.098;6.414;2023-07-13T02:33:42;14.30;99.90
3051;DHT22;1535;51.098;6.414;2023-07-13T02:36:10;14.30;99.90
3051;DHT22;1535;51.098;6.414;2023-07-13T02:38:36;14.30;99.90
3051;DHT22;1535;51.098;6.414;2023-07-13T02:41:04;14.30;99.90
3051;DHT22;1535;51.098;6.414;2023-07-13T02:43:33;14.30;99.90
3051;DHT22;1535;51.098;6.414;2023-07-13T02:46:00;14.30;99.90
3051;DHT22;1535;51.098;6.414;2023-07-13T02:48:33;14.20;99.90
3051;DHT22;1535;51.098;6.414;2023-07-13T02:51:01;14.20;99.90
3051;DHT22;1535;51.098;6.414;2023-07-13T02:53:28;14.20;99.90
3051;DHT22;1535;51.098;6.414;2023-07-13T02:55:55;14.20;99.90
3051;DHT22;1535;51.098;6.414;2023-07-13T02:58:23;14.10;99.90
3051;DHT22;1535;51.098;6.414;2023-07-13T03:00:50;14.20;99.90
3051;DHT22;1535;51.098;6.414;2023-07-13T03:03:17;14.20;99.90
3051;DHT22;1535;51.098;6.414;2023-07-13T03:05:46;14.20;99.90
3051;DHT22;1535;51.098;6.414;2023-07-13T03:08:16;14.10;99.90
3051;DHT22;1535;51.098;6.414;2023-07-13T03:10:46;14.10;99.90
3051;DHT22;1535;51.098;6.414;2023-07-13T03:13:13;14.10;99.90
3051;DHT22;1535;51.098;6.414;2023-07-13T03:15:39;14.10;99.90
3051;DHT22;1535;51.098;6.414;2023-07-13T03:18:06;14.10;99.90
3051;DHT22;1535;51.098;6.414;2023-07-13T03:20:33;14.00;99.90
3051;DHT22;1535;51.098;6.414;2023-07-13T03:23:02;14.00;99.90
3051;DHT22;1535;51.098;6.414;2023-07-13T03:25:31;14.00;99.90
3051;DHT22;1535;51.098;6.414;2023-07-13T03:27:57;14.00;99.90
3051;DHT22;1535;51.098;6.414;2023-07-13T03:30:26;14.00;99.90
3051;DHT22;1535;51.098;6.414;2023-07-13T03:32:54;13.90;99.90
3051;DHT22;1535;51.098;6.414;2023-07-13T03:35:21;14.00;99.90
3051;DHT22;1535;51.098;6.414;2023-07-13T03:37:48;14.00;99.90
3051;DHT22;1535;51.098;6.414;2023-07-13T03:40:18;14.00;99.90
3051;DHT22;1535;51.098;6.414;2023-07-13T03:42:46;14.00;99.90
3051;DHT22;1535;51.098;6.414;2023-07-13T03:45:16;14.00;99.90
3051;DHT22;1535;51.098;6.414;2023-07-13T03:47:42;14.00;99.90
3051;DHT22;1535;51.098;6.414;2023-07-13T03:50:10;14.00;99.90
3051;DHT22;1535;51.098;6.414;2023-07-13T03:52:38;13.90;99.90
3051;DHT22;1535;51.098;6.414;2023-07-13T03:55:05;13.90;99.90
3051;DHT22;1535;51.098;6.414;2023-07-13T03:57:34;13.90;99.90
3051;DHT22;1535;51.098;6.414;2023-07-13T04:00:01;13.90;99.90
3051;DHT22;1535;51.098;6.414;2023-07-13T04:02:29;13.80;99.90
3051;DHT22;1535;51.098;6.414;2023-07-13T04:04:56;13.80;99.90
3051;DHT22;1535;51.098;6.414;2023-07-13T04:07:23;13.80;99.90
3051;DHT22;1535;51.098;6.414;2023-07-13T04:09:50;13.80;99.90
3051;DHT22;1535;51.098;6.414;2023-07-13T04:12:16;13.90;99.90
3051;DHT22;1535;51.098;6.414;2023-07-13T04:14:46;13.90;99.90
3051;DHT22;1535;51.098;6.414;2023-07-13T04:17:14;13.90;99.90
3051;DHT22;1535;51.098;6.414;2023-07-13T04:19:41;14.00;99.90
3051;DHT22;1535;51.098;6.414;2023-07-13T04:22:07;14.00;99.90
3051;DHT22;1535;51.098;6.414;2023-07-13T04:24:36;13.90;99.90
3051;DHT22;1535;51.098;6.414;2023-07-13T04:27:03;14.00;99.90
3051;DHT22;1535;51.098;6.414;2023-07-13T04:29:30;14.00;99.90
3051;DHT22;1535;51.098;6.414;2023-07-13T04:31:58;14.10;99.90
3051;DHT22;1535;51.098;6.414;2023-07-13T04:34:25;14.10;99.90
3051;DHT22;1535;51.098;6.414;2023-07-13T04:36:52;14.20;99.90
3051;DHT22;1535;51.098;6.414;2023-07-13T04:39:19;14.20;99.90
3051;DHT22;1535;51.098;6.414;2023-07-13T04:41:48;14.30;99.90
3051;DHT22;1535;51.098;6.414;2023-07-13T04:44:17;14.40;99.90
3051;DHT22;1535;51.098;6.414;2023-07-13T04:46:44;14.50;99.90
3051;DHT22;1535;51.098;6.414;2023-07-13T04:49:12;14.60;99.90
3051;DHT22;1535;51.098;6.414;2023-07-13T04:51:39;14.60;99.90
3051;DHT22;1535;51.098;6.414;2023-07-13T04:54:06;14.70;99.90
3051;DHT22;1535;51.098;6.414;2023-07-13T04:56:33;14.70;99.90
3051;DHT22;1535;51.098;6.414;2023-07-13T04:59:00;14.80;99.90
3051;DHT22;1535;51.098;6.414;2023-07-13T05:01:27;14.90;99.90
3051;DHT22;1535;51.098;6.414;2023-07-13T05:03:54;15.00;99.90
3051;DHT22;1535;51.098;6.414;2023-07-13T05:06:25;15.10;99.90
3051;DHT22;1535;51.098;6.414;2023-07-13T05:08:52;15.20;99.90
3051;DHT22;1535;51.098;6.414;2023-07-13T05:11:19;15.30;99.90
3051;DHT22;1535;51.098;6.414;2023-07-13T05:13:47;15.40;99.90
3051;DHT22;1535;51.098;6.414;2023-07-13T05:16:14;15.40;99.90
3051;DHT22;1535;51.098;6.414;2023-07-13T05:18:41;15.50;99.90
3051;DHT22;1535;51.098;6.414;2023-07-13T05:21:10;15.50;99.90
3051;DHT22;1535;51.098;6.414;2023-07-13T05:23:40;15.60;99.90
3051;DHT22;1535;51.098;6.414;2023-07-13T05:26:07;15.70;99.90
3051;DHT22;1535;51.098;6.414;2023-07-13T05:28:36;15.70;99.90
3051;DHT22;1535;51.098;6.414;2023-07-13T05:31:03;15.80;99.90
3051;DHT22;1535;51.098;6.414;2023-07-13T05:33:29;15.80;99.90
3051;DHT22;1535;51.098;6.414;2023-07-13T05:35:57;15.80;99.90
3051;DHT22;1535;51.098;6.414;2023-07-13T05:38:26;15.90;99.90
3051;DHT22;1535;51.098;6.414;2023-07-13T05:40:55;16.00;99.90
3051;DHT22;1535;51.098;6.414;2023-07-13T05:43:22;16.00;99.90
3051;DHT22;1535;51.098;6.414;2023-07-13T05:45:52;16.10;99.90
3051;DHT22;1535;51.098;6.414;2023-07-13T05:48:19;16.10;99.90
3051;DHT22;1535;51.098;6.414;2023-07-13T05:50:47;16.00;99.90
3051;DHT22;1535;51.098;6.414;2023-07-13T05:53:15;16.10;99.90
3051;DHT22;1535;51.098;6.414;2023-07-13T05:55:42;16.10;99.90
3051;DHT22;1535;51.098;6.414;2023-07-13T05:58:14;16.20;99.90
3051;DHT22;1535;51.098;6.414;2023-07-13T06:00:41;16.40;99.90
3051;DHT22;1535;51.098;6.414;2023-07-13T06:03:08;16.60;99.90
3051;DHT22;1535;51.098;6.414;2023-07-13T06:05:35;16.80;99.90
3051;DHT22;1535;51.098;6.414;2023-07-13T06:08:03;16.80;99.90
3051;DHT22;1535;51.098;6.414;2023-07-13T06:10:32;16.90;99.90
3051;DHT22;1535;51.098;6.414;2023-07-13T06:13:00;17.20;99.90
3051;DHT22;1535;51.098;6.414;2023-07-13T06:15:28;17.50;99.90
3051;DHT22;1535;51.098;6.414;2023-07-13T06:17:55;17.60;99.90
3051;DHT22;1535;51.098;6.414;2023-07-13T06:20:22;17.90;99.90
3051;DHT22;1535;51.098;6.414;2023-07-13T06:22:49;17.80;99.90
3051;DHT22;1535;51.098;6.414;2023-07-13T06:25:16;17.90;99.90
3051;DHT22;1535;51.098;6.414;2023-07-13T06:27:44;17.90;99.90
3051;DHT22;1535;51.098;6.414;2023-07-13T06:30:12;17.80;99.90
3051;DHT22;1535;51.098;6.414;2023-07-13T06:32:41;18.00;99.90
3051;DHT22;1535;51.098;6.414;2023-07-13T06:35:08;17.90;99.90
3051;DHT22;1535;51.098;6.414;2023-07-13T06:37:38;17.90;99.90
3051;DHT22;1535;51.098;6.414;2023-07-13T06:40:06;18.10;99.90
3051;DHT22;1535;51.098;6.414;2023-07-13T06:42:33;18.30;99.90
3051;DHT22;1535;51.098;6.414;2023-07-13T06:44:59;18.10;99.90
3051;DHT22;1535;51.098;6.414;2023-07-13T06:47:26;18.20;99.90
3051;DHT22;1535;51.098;6.414;2023-07-13T06:49:55;18.20;99.90
3051;DHT22;1535;51.098;6.414;2023-07-13T06:52:21;18.10;99.90
3051;DHT22;1535;51.098;6.414;2023-07-13T06:54:48;18.30;99.90
3051;DHT22;1535;51.098;6.414;2023-07-13T06:57:15;18.40;99.90
3051;DHT22;1535;51.098;6.414;2023-07-13T06:59:42;18.60;99.90
3051;DHT22;1535;51.098;6.414;2023-07-13T07:02:10;18.80;99.90
3051;DHT22;1535;51.098;6.414;2023-07-13T07:04:37;18.90;99.90
3051;DHT22;1535;51.098;6.414;2023-07-13T07:07:05;18.90;99.90
3051;DHT22;1535;51.098;6.414;2023-07-13T07:09:32;18.80;99.90
3051;DHT22;1535;51.098;6.414;2023-07-13T07:11:59;18.90;99.90
3051;DHT22;1535;51.098;6.414;2023-07-13T07:14:26;18.90;99.90
3051;DHT22;1535;51.098;6.414;2023-07-13T07:16:53;19.00;99.90
3051;DHT22;1535;51.098;6.414;2023-07-13T07:19:21;19.00;99.90
3051;DHT22;1535;51.098;6.414;2023-07-13T07:21:49;19.30;99.90
3051;DHT22;1535;51.098;6.414;2023-07-13T07:24:17;19.20;99.90
3051;DHT22;1535;51.098;6.414;2023-07-13T07:26:44;19.40;99.90
3051;DHT22;1535;51.098;6.414;2023-07-13T07:29:11;19.50;99.90
3051;DHT22;1535;51.098;6.414;2023-07-13T07:31:38;19.50;99.90
3051;DHT22;1535;51.098;6.414;2023-07-13T07:34:05;19.70;99.90
3051;DHT22;1535;51.098;6.414;2023-07-13T07:36:32;19.40;99.90
3051;DHT22;1535;51.098;6.414;2023-07-13T07:38:59;19.60;99.90
3051;DHT22;1535;51.098;6.414;2023-07-13T07:41:27;19.50;99.90
3051;DHT22;1535;51.098;6.414;2023-07-13T07:43:55;19.40;99.90
3051;DHT22;1535;51.098;6.414;2023-07-13T07:46:22;19.50;99.90
3051;DHT22;1535;51.098;6.414;2023-07-13T07:48:49;19.50;99.90
3051;DHT22;1535;51.098;6.414;2023-07-13T07:51:16;19.60;99.90
3051;DHT22;1535;51.098;6.414;2023-07-13T07:53:42;19.60;99.90
3051;DHT22;1535;51.098;6.414;2023-07-13T07:56:09;19.80;99.90
3051;DHT22;1535;51.098;6.414;2023-07-13T07:58:37;19.80;99.90
3051;DHT22;1535;51.098;6.414;2023-07-13T08:01:06;19.80;99.90
3051;DHT22;1535;51.098;6.414;2023-07-13T08:03:32;19.90;99.90
3051;DHT22;1535;51.098;6.414;2023-07-13T08:05:59;20.10;99.90
3051;DHT22;1535;51.098;6.414;2023-07-13T08:08:26;20.40;99.90
3051;DHT22;1535;51.098;6.414;2023-07-13T08:10:53;20.70;99.90
3051;DHT22;1535;51.098;6.414;2023-07-13T08:13:20;21.00;99.90
3051;DHT22;1535;51.098;6.414;2023-07-13T08:15:49;21.20;99.90
3051;DHT22;1535;51.098;6.414;2023-07-13T08:18:16;21.20;99.90
3051;DHT22;1535;51.098;6.414;2023-07-13T08:20:43;21.10;99.90
3051;DHT22;1535;51.098;6.414;2023-07-13T08:23:11;21.10;99.90
3051;DHT22;1535;51.098;6.414;2023-07-13T08:25:38;20.90;99.90
3051;DHT22;1535;51.098;6.414;2023-07-13T08:28:05;21.10;99.90
3051;DHT22;1535;51.098;6.414;2023-07-13T08:30:31;21.30;99.90
3051;DHT22;1535;51.098;6.414;2023-07-13T08:33:00;21.40;99.90
3051;DHT22;1535;51.098;6.414;2023-07-13T08:35:26;21.40;99.90
3051;DHT22;1535;51.098;6.414;2023-07-13T08:37:53;21.30;99.90
3051;DHT22;1535;51.098;6.414;2023-07-13T08:40:24;21.10;99.90
3051;DHT22;1535;51.098;6.414;2023-07-13T08:42:54;21.40;99.90
3051;DHT22;1535;51.098;6.414;2023-07-13T08:45:23;21.90;99.90
3051;DHT22;1535;51.098;6.414;2023-07-13T08:47:52;21.90;99.90
3051;DHT22;1535;51.098;6.414;2023-07-13T08:50:25;21.50;99.90
3051;DHT22;1535;51.098;6.414;2023-07-13T08:52:55;21.70;99.90
3051;DHT22;1535;51.098;6.414;2023-07-13T08:55:27;21.90;99.90
3051;DHT22;1535;51.098;6.414;2023-07-13T08:58:01;22.50;99.90
3051;DHT22;1535;51.098;6.414;2023-07-13T09:00:44;22.60;99.90
3051;DHT22;1535;51.098;6.414;2023-07-13T09:03:18;22.40;99.90
3051;DHT22;1535;51.098;6.414;2023-07-13T09:05:51;22.70;99.90
3051;DHT22;1535;51.098;6.414;2023-07-13T09:08:33;23.20;99.90
3051;DHT22;1535;51.098;6.414;2023-07-13T09:11:10;23.00;99.90
3051;DHT22;1535;51.098;6.414;2023-07-13T09:13:47;22.80;99.90
3051;DHT22;1535;51.098;6.414;2023-07-13T09:16:16;22.90;99.90
3051;DHT22;1535;51.098;6.414;2023-07-13T09:18:45;22.60;99.90
3051;DHT22;1535;51.098;6.414;2023-07-13T09:21:23;22.40;99.90
3051;DHT22;1535;51.098;6.414;2023-07-13T09:23:54;22.20;99.90
3051;DHT22;1535;51.098;6.414;2023-07-13T09:26:24;22.40;99.90
3051;DHT22;1535;51.098;6.414;2023-07-13T09:28:53;22.50;99.90
3051;DHT22;1535;51.098;6.414;2023-07-13T09:31:26;23.10;99.90
3051;DHT22;1535;51.098;6.414;2023-07-13T09:33:57;24.00;99.90
3051;DHT22;1535;51.098;6.414;2023-07-13T09:36:27;24.40;99.90
3051;DHT22;1535;51.098;6.414;2023-07-13T09:39:01;24.50;99.90
3051;DHT22;1535;51.098;6.414;2023-07-13T09:41:35;24.00;99.90
3051;DHT22;1535;51.098;6.414;2023-07-13T09:44:09;23.70;99.90
3051;DHT22;1535;51.098;6.414;2023-07-13T09:46:37;23.80;99.90
3051;DHT22;1535;51.098;6.414;2023-07-13T09:49:04;24.10;99.90
3051;DHT22;1535;51.098;6.414;2023-07-13T09:51:33;23.90;99.90
3051;DHT22;1535;51.098;6.414;2023-07-13T09:54:00;23.60;99.90
3051;DHT22;1535;51.098;6.414;2023-07-13T09:56:29;23.50;99.90
3051;DHT22;1535;51.098;6.414;2023-07-13T09:58:56;23.10;99.90
3051;DHT22;1535;51.098;6.414;2023-07-13T10:01:33;22.80;99.90
3051;DHT22;1535;51.098;6.414;2023-07-13T10:04:00;23.10;99.90
3051;DHT22;1535;51.098;6.414;2023-07-13T10:06:27;22.90;99.90
3051;DHT22;1535;51.098;6.414;2023-07-13T10:08:56;23.50;99.90
3051;DHT22;1535;51.098;6.414;2023-07-13T10:11:26;23.90;99.90
3051;DHT22;1535;51.098;6.414;2023-07-13T10:13:56;24.50;99.90
3051;DHT22;1535;51.098;6.414;2023-07-13T10:16:25;25.50;99.90
3051;DHT22;1535;51.098;6.414;2023-07-13T10:18:55;25.90;99.90
3051;DHT22;1535;51.098;6.414;2023-07-13T10:21:32;26.10;99.90
3051;DHT22;1535;51.098;6.414;2023-07-13T10:24:06;25.70;99.90
3051;DHT22;1535;51.098;6.414;2023-07-13T10:26:38;25.00;99.90
3051;DHT22;1535;51.098;6.414;2023-07-13T10:29:11;24.70;99.90
3051;DHT22;1535;51.098;6.414;2023-07-13T10:31:40;24.00;99.90
3051;DHT22;1535;51.098;6.414;2023-07-13T10:34:10;24.90;99.90
3051;DHT22;1535;51.098;6.414;2023-07-13T10:36:40;25.00;99.90
3051;DHT22;1535;51.098;6.414;2023-07-13T10:39:15;25.20;99.90
3051;DHT22;1535;51.098;6.414;2023-07-13T10:41:45;24.70;99.90
3051;DHT22;1535;51.098;6.414;2023-07-13T10:44:18;24.20;99.90
3051;DHT22;1535;51.098;6.414;2023-07-13T10:46:46;24.00;99.90
3051;DHT22;1535;51.098;6.414;2023-07-13T10:49:14;23.90;99.90
3051;DHT22;1535;51.098;6.414;2023-07-13T10:51:42;23.60;99.90
3051;DHT22;1535;51.098;6.414;2023-07-13T10:54:19;23.30;99.90
3051;DHT22;1535;51.098;6.414;2023-07-13T10:56:51;23.20;99.90
3051;DHT22;1535;51.098;6.414;2023-07-13T10:59:23;22.90;99.90
3051;DHT22;1535;51.098;6.414;2023-07-13T11:01:56;22.90;99.90
3051;DHT22;1535;51.098;6.414;2023-07-13T11:04:24;23.00;99.90
3051;DHT22;1535;51.098;6.414;2023-07-13T11:06:56;23.30;99.90
3051;DHT22;1535;51.098;6.414;2023-07-13T11:09:42;23.80;99.90
3051;DHT22;1535;51.098;6.414;2023-07-13T11:12:28;24.20;99.90
3051;DHT22;1535;51.098;6.414;2023-07-13T11:15:11;25.20;99.90
3051;DHT22;1535;51.098;6.414;2023-07-13T11:17:48;25.00;99.90
3051;DHT22;1535;51.098;6.414;2023-07-13T11:20:36;25.30;99.90
3051;DHT22;1535;51.098;6.414;2023-07-13T11:23:17;26.30;99.90
3051;DHT22;1535;51.098;6.414;2023-07-13T11:25:46;26.60;99.90
3051;DHT22;1535;51.098;6.414;2023-07-13T11:28:17;26.50;99.90
3051;DHT22;1535;51.098;6.414;2023-07-13T11:30:46;27.10;99.90
3051;DHT22;1535;51.098;6.414;2023-07-13T11:33:17;27.40;99.90
3051;DHT22;1535;51.098;6.414;2023-07-13T11:35:49;27.10;99.90
3051;DHT22;1535;51.098;6.414;2023-07-13T11:38:20;27.60;99.90
3051;DHT22;1535;51.098;6.414;2023-07-13T11:40:51;27.60;99.90
3051;DHT22;1535;51.098;6.414;2023-07-13T11:43:20;27.60;99.90
3051;DHT22;1535;51.098;6.414;2023-07-13T11:45:49;27.80;99.90
3051;DHT22;1535;51.098;6.414;2023-07-13T11:48:25;28.60;99.90
3051;DHT22;1535;51.098;6.414;2023-07-13T11:50:55;29.30;99.90
3051;DHT22;1535;51.098;6.414;2023-07-13T11:53:26;29.00;99.90
3051;DHT22;1535;51.098;6.414;2023-07-13T11:55:55;28.10;99.90
3051;DHT22;1535;51.098;6.414;2023-07-13T11:58:25;27.80;99.90
3051;DHT22;1535;51.098;6.414;2023-07-13T12:00:55;27.70;99.90
3051;DHT22;1535;51.098;6.414;2023-07-13T12:03:25;28.10;99.90
3051;DHT22;1535;51.098;6.414;2023-07-13T12:05:59;27.80;99.90
3051;DHT22;1535;51.098;6.414;2023-07-13T12:08:27;27.80;99.90
3051;DHT22;1535;51.098;6.414;2023-07-13T12:11:00;27.60;99.30
3051;DHT22;1535;51.098;6.414;2023-07-13T12:13:28;27.10;99.90
3051;DHT22;1535;51.098;6.414;2023-07-13T12:15:56;26.40;99.90
3051;DHT22;1535;51.098;6.414;2023-07-13T12:18:29;27.00;99.90
3051;DHT22;1535;51.098;6.414;2023-07-13T12:20:58;27.60;99.90
3051;DHT22;1535;51.098;6.414;2023-07-13T12:23:28;28.60;99.90
3051;DHT22;1535;51.098;6.414;2023-07-13T12:25:56;28.80;98.60
3051;DHT22;1535;51.098;6.414;2023-07-13T12:28:34;29.10;98.30
3051;DHT22;1535;51.098;6.414;2023-07-13T12:31:04;28.20;98.80
3051;DHT22;1535;51.098;6.414;2023-07-13T12:33:33;28.20;98.50
3051;DHT22;1535;51.098;6.414;2023-07-13T12:36:01;27.60;98.60
3051;DHT22;1535;51.098;6.414;2023-07-13T12:38:31;27.80;99.50
3051;DHT22;1535;51.098;6.414;2023-07-13T12:40:58;27.30;99.10
3051;DHT22;1535;51.098;6.414;2023-07-13T12:43:26;26.60;99.10
3051;DHT22;1535;51.098;6.414;2023-07-13T12:46:01;26.40;99.90
3051;DHT22;1535;51.098;6.414;2023-07-13T12:48:30;27.00;99.40
3051;DHT22;1535;51.098;6.414;2023-07-13T12:51:09;27.00;99.90
3051;DHT22;1535;51.098;6.414;2023-07-13T12:53:40;27.70;99.60
3051;DHT22;1535;51.098;6.414;2023-07-13T12:56:15;27.50;99.50
3051;DHT22;1535;51.098;6.414;2023-07-13T12:58:45;27.60;98.90
3051;DHT22;1535;51.098;6.414;2023-07-13T13:01:17;27.10;99.20
3051;DHT22;1535;51.098;6.414;2023-07-13T13:03:47;26.60;98.10
3051;DHT22;1535;51.098;6.414;2023-07-13T13:06:22;27.20;99.60
3051;DHT22;1535;51.098;6.414;2023-07-13T13:08:52;27.90;98.90
3051;DHT22;1535;51.098;6.414;2023-07-13T13:11:20;28.40;97.70
3051;DHT22;1535;51.098;6.414;2023-07-13T13:13:47;28.40;97.00
3051;DHT22;1535;51.098;6.414;2023-07-13T13:16:19;28.00;97.10
3051;DHT22;1535;51.098;6.414;2023-07-13T13:18:47;27.90;97.60
3051;DHT22;1535;51.098;6.414;2023-07-13T13:21:14;28.20;96.50
3051;DHT22;1535;51.098;6.414;2023-07-13T13:23:41;27.70;96.10
3051;DHT22;1535;51.098;6.414;2023-07-13T13:26:10;27.60;96.20
3051;DHT22;1535;51.098;6.414;2023-07-13T13:28:38;28.50;95.40
3051;DHT22;1535;51.098;6.414;2023-07-13T13:31:07;29.00;95.30
3051;DHT22;1535;51.098;6.414;2023-07-13T13:33:39;29.40;96.10
3051;DHT22;1535;51.098;6.414;2023-07-13T13:36:14;30.40;93.00
3051;DHT22;1535;51.098;6.414;2023-07-13T13:38:42;30.00;93.00
3051;DHT22;1535;51.098;6.414;2023-07-13T13:41:11;30.40;93.00
3051;DHT22;1535;51.098;6.414;2023-07-13T13:43:40;30.40;90.40
3051;DHT22;1535;51.098;6.414;2023-07-13T13:46:13;30.40;90.20
3051;DHT22;1535;51.098;6.414;2023-07-13T13:48:43;29.80;90.30
3051;DHT22;1535;51.098;6.414;2023-07-13T13:51:15;28.90;91.50
3051;DHT22;1535;51.098;6.414;2023-07-13T13:53:42;28.50;92.70
3051;DHT22;1535;51.098;6.414;2023-07-13T13:56:10;28.50;92.90
3051;DHT22;1535;51.098;6.414;2023-07-13T13:58:37;29.00;93.00
3051;DHT22;1535;51.098;6.414;2023-07-13T14:01:05;29.30;91.50
3051;DHT22;1535;51.098;6.414;2023-07-13T14:03:35;29.10;91.90
3051;DHT22;1535;51.098;6.414;2023-07-13T14:06:04;28.10;92.50
3051;DHT22;1535;51.098;6.414;2023-07-13T14:08:31;27.30;93.10
3051;DHT22;1535;51.098;6.414;2023-07-13T14:10:58;26.60;94.40
3051;DHT22;1535;51.098;6.414;2023-07-13T14:13:27;26.40;95.50
3051;DHT22;1535;51.098;6.414;2023-07-13T14:15:54;26.50;96.10
3051;DHT22;1535;51.098;6.414;2023-07-13T14:18:22;26.20;94.30
3051;DHT22;1535;51.098;6.414;2023-07-13T14:20:49;25.70;95.40
3051;DHT22;1535;51.098;6.414;2023-07-13T14:23:19;25.40;95.60
3051;DHT22;1535;51.098;6.414;2023-07-13T14:25:46;24.80;96.40
3051;DHT22;1535;51.098;6.414;2023-07-13T14:28:23;24.50;97.20
3051;DHT22;1535;51.098;6.414;2023-07-13T14:30:52;24.50;97.60
3051;DHT22;1535;51.098;6.414;2023-07-13T14:33:20;24.50;97.50
3051;DHT22;1535;51.098;6.414;2023-07-13T14:35:47;24.10;98.20
3051;DHT22;1535;51.098;6.414;2023-07-13T14:38:17;24.00;99.90
3051;DHT22;1535;51.098;6.414;2023-07-13T14:40:47;23.30;99.90
3051;DHT22;1535;51.098;6.414;2023-07-13T14:43:15;22.90;99.90
3051;DHT22;1535;51.098;6.414;2023-07-13T14:45:44;22.50;99.90
3051;DHT22;1535;51.098;6.414;2023-07-13T14:48:15;22.40;99.90
3051;DHT22;1535;51.098;6.414;2023-07-13T14:50:42;22.10;99.90
3051;DHT22;1535;51.098;6.414;2023-07-13T14:53:10;22.00;99.90
3051;DHT22;1535;51.098;6.414;2023-07-13T14:55:37;21.90;99.90
3051;DHT22;1535;51.098;6.414;2023-07-13T14:58:06;21.90;99.90
3051;DHT22;1535;51.098;6.414;2023-07-13T15:00:33;21.70;99.90
3051;DHT22;1535;51.098;6.414;2023-07-13T15:03:01;21.50;99.90
3051;DHT22;1535;51.098;6.414;2023-07-13T15:05:30;21.30;99.90
3051;DHT22;1535;51.098;6.414;2023-07-13T15:07:59;21.10;99.90
3051;DHT22;1535;51.098;6.414;2023-07-13T15:10:28;20.90;99.90
3051;DHT22;1535;51.098;6.414;2023-07-13T15:12:59;20.70;99.90
3051;DHT22;1535;51.098;6.414;2023-07-13T15:15:39;20.70;99.90
3051;DHT22;1535;51.098;6.414;2023-07-13T15:18:09;20.60;99.90
3051;DHT22;1535;51.098;6.414;2023-07-13T15:20:38;20.50;99.90
3051;DHT22;1535;51.098;6.414;2023-07-13T15:23:05;20.40;99.90
3051;DHT22;1535;51.098;6.414;2023-07-13T15:25:33;20.30;99.90
3051;DHT22;1535;51.098;6.414;2023-07-13T15:28:01;20.30;99.90
3051;DHT22;1535;51.098;6.414;2023-07-13T15:30:33;20.30;99.90
3051;DHT22;1535;51.098;6.414;2023-07-13T15:33:11;20.20;99.90
3051;DHT22;1535;51.098;6.414;2023-07-13T15:35:39;20.20;99.90
3051;DHT22;1535;51.098;6.414;2023-07-13T15:38:14;20.30;99.90
3051;DHT22;1535;51.098;6.414;2023-07-13T15:40:41;20.20;99.90
3051;DHT22;1535;51.098;6.414;2023-07-13T15:43:12;20.20;99.90
3051;DHT22;1535;51.098;6.414;2023-07-13T15:45:41;20.30;99.90
3051;DHT22;1535;51.098;6.414;2023-07-13T15:48:13;20.40;99.90
3051;DHT22;1535;51.098;6.414;2023-07-13T15:50:43;20.40;99.90
3051;DHT22;1535;51.098;6.414;2023-07-13T15:53:11;20.20;99.90
3051;DHT22;1535;51.098;6.414;2023-07-13T15:55:38;20.40;99.90
3051;DHT22;1535;51.098;6.414;2023-07-13T15:58:11;20.40;99.90
3051;DHT22;1535;51.098;6.414;2023-07-13T16:00:41;20.60;99.90
3051;DHT22;1535;51.098;6.414;2023-07-13T16:03:10;20.60;99.90
3051;DHT22;1535;51.098;6.414;2023-07-13T16:05:38;20.70;99.90
3051;DHT22;1535;51.098;6.414;2023-07-13T16:08:06;20.60;99.90
3051;DHT22;1535;51.098;6.414;2023-07-13T16:10:37;20.70;99.90
3051;DHT22;1535;51.098;6.414;2023-07-13T16:13:10;20.70;99.90